sensor_id;sensor_type;location;lat;lon;timestamp;temperature;humidity
37204;DHT22;23098;48.054;10.636;2023-09-18T00:02:11;16.10;99.90
37204;DHT22;23098;48.054;10.636;2023-09-18T00:04:37;16.10;99.90
37204;DHT22;23098;48.054;10.636;2023-09-18T00:07:03;16.00;99.90
37204;DHT22;23098;48.054;10.636;2023-09-18T00:09:28;16.00;99.90
37204;DHT22;23098;48.054;10.636;2023-09-18T00:11:53;16.00;99.90
37204;DHT22;23098;48.054;10.636;2023-09-18T00:14:19;16.00;99.90
37204;DHT22;23098;48.054;10.636;2023-09-18T00:16:45;16.00;99.90
37204;DHT22;23098;48.054;10.636;2023-09-18T00:19:10;16.00;99.90
37204;DHT22;23098;48.054;10.636;2023-09-18T00:21:36;16.00;99.90
37204;DHT22;23098;48.054;10.636;2023-09-18T00:24:03;15.90;99.90
37204;DHT22;23098;48.054;10.636;2023-09-18T00:26:28;15.90;99.90
37204;DHT22;23098;48.054;10.636;2023-09-18T00:28:54;15.90;99.90
37204;DHT22;23098;48.054;10.636;2023-09-18T00:31:19;15.80;99.90
37204;DHT22;23098;48.054;10.636;2023-09-18T00:33:45;15.80;99.90
37204;DHT22;23098;48.054;10.636;2023-09-18T00:36:11;15.80;99.90
37204;DHT22;23098;48.054;10.636;2023-09-18T00:38:36;15.80;99.90
37204;DHT22;23098;48.054;10.636;2023-09-18T00:41:02;15.80;99.90
37204;DHT22;23098;48.054;10.636;2023-09-18T00:43:27;15.80;99.90
37204;DHT22;23098;48.054;10.636;2023-09-18T00:45:53;15.80;99.90
37204;DHT22;23098;48.054;10.636;2023-09-18T00:48:19;15.80;99.90
37204;DHT22;23098;48.054;10.636;2023-09-18T00:50:45;15.90;99.90
37204;DHT22;23098;48.054;10.636;2023-09-18T00:53:15;16.00;99.90
37204;DHT22;23098;48.054;10.636;2023-09-18T00:55:42;16.10;99.90
37204;DHT22;23098;48.054;10.636;2023-09-18T00:58:08;16.10;99.90
37204;DHT22;23098;48.054;10.636;2023-09-18T01:00:34;16.10;99.90
37204;DHT22;23098;48.054;10.636;2023-09-18T01:03:01;16.10;99.90
37204;DHT22;23098;48.054;10.636;2023-09-18T01:05:27;16.00;99.90
37204;DHT22;23098;48.054;10.636;2023-09-18T01:07:53;16.00;99.90
37204;DHT22;23098;48.054;10.636;2023-09-18T01:10:19;15.90;99.90
37204;DHT22;23098;48.054;10.636;2023-09-18T01:12:54;15.90;99.90
37204;DHT22;23098;48.054;10.636;2023-09-18T01:15:31;16.00;99.90
37204;DHT22;23098;48.054;10.636;2023-09-18T01:17:58;16.00;99.90
37204;DHT22;23098;48.054;10.636;2023-09-18T01:20:23;16.10;99.90
37204;DHT22;23098;48.054;10.636;2023-09-18T01:22:49;16.00;99.90
37204;DHT22;23098;48.054;10.636;2023-09-18T01:25:15;16.00;99.90
37204;DHT22;23098;48.054;10.636;2023-09-18T01:27:41;16.00;99.90
37204;DHT22;23098;48.054;10.636;2023-09-18T01:30:07;16.10;99.90
37204;DHT22;23098;48.054;10.636;2023-09-18T01:32:35;16.10;99.90
37204;DHT22;23098;48.054;10.636;2023-09-18T01:35:03;16.20;99.90
37204;DHT22;23098;48.054;10.636;2023-09-18T01:37:31;16.20;99.90
37204;DHT22;23098;48.054;10.636;2023-09-18T01:39:58;16.20;99.90
37204;DHT22;23098;48.054;10.636;2023-09-18T01:42:25;16.30;99.90
37204;DHT22;23098;48.054;10.636;2023-09-18T01:44:53;16.30;99.90
37204;DHT22;23098;48.054;10.636;2023-09-18T01:47:21;16.30;99.90
37204;DHT22;23098;48.054;10.636;2023-09-18T01:49:48;16.20;99.90
37204;DHT22;23098;48.054;10.636;2023-09-18T01:52:14;16.20;99.90
37204;DHT22;23098;48.054;10.636;2023-09-18T01:54:39;16.30;99.90
37204;DHT22;23098;48.054;10.636;2023-09-18T01:57:05;16.30;99.90
37204;DHT22;23098;48.054;10.636;2023-09-18T01:59:33;16.40;99.90
37204;DHT22;23098;48.054;10.636;2023-09-18T02:01:59;16.30;99.90
37204;DHT22;23098;48.054;10.636;2023-09-18T02:04:24;16.30;99.90
37204;DHT22;23098;48.054;10.636;2023-09-18T02:06:51;16.20;99.90
37204;DHT22;23098;48.054;10.636;2023-09-18T02:09:17;16.20;99.90
37204;DHT22;23098;48.054;10.636;2023-09-18T02:11:46;16.10;99.90
37204;DHT22;23098;48.054;10.636;2023-09-18T02:14:12;16.10;99.90
37204;DHT22;23098;48.054;10.636;2023-09-18T02:16:40;16.00;99.90
37204;DHT22;23098;48.054;10.636;2023-09-18T02:19:11;15.90;99.90
37204;DHT22;23098;48.054;10.636;2023-09-18T02:21:37;15.80;99.90
37204;DHT22;23098;48.054;10.636;2023-09-18T02:24:03;15.80;99.90
37204;DHT22;23098;48.054;10.636;2023-09-18T02:26:29;15.70;99.90
37204;DHT22;23098;48.054;10.636;2023-09-18T02:28:57;15.60;99.90
37204;DHT22;23098;48.054;10.636;2023-09-18T02:31:23;15.50;99.90
37204;DHT22;23098;48.054;10.636;2023-09-18T02:33:48;15.40;99.90
37204;DHT22;23098;48.054;10.636;2023-09-18T02:36:14;15.30;99.90
37204;DHT22;23098;48.054;10.636;2023-09-18T02:38:40;15.30;99.90
37204;DHT22;23098;48.054;10.636;2023-09-18T02:41:06;15.30;99.90
37204;DHT22;23098;48.054;10.636;2023-09-18T02:43:31;15.20;99.90
37204;DHT22;23098;48.054;10.636;2023-09-18T02:45:57;15.20;99.90
37204;DHT22;23098;48.054;10.636;2023-09-18T02:48:22;15.20;99.90
37204;DHT22;23098;48.054;10.636;2023-09-18T02:50:48;15.30;99.90
37204;DHT22;23098;48.054;10.636;2023-09-18T02:53:21;15.20;99.90
37204;DHT22;23098;48.054;10.636;2023-09-18T02:55:49;15.30;99.90
37204;DHT22;23098;48.054;10.636;2023-09-18T02:58:15;15.20;99.90
37204;DHT22;23098;48.054;10.636;2023-09-18T03:00:46;15.20;99.90
37204;DHT22;23098;48.054;10.636;2023-09-18T03:03:12;15.10;99.90
37204;DHT22;23098;48.054;10.636;2023-09-18T03:05:39;15.10;99.90
37204;DHT22;23098;48.054;10.636;2023-09-18T03:08:05;15.00;99.90
37204;DHT22;23098;48.054;10.636;2023-09-18T03:10:39;15.00;99.90
37204;DHT22;23098;48.054;10.636;2023-09-18T03:13:06;14.90;99.90
37204;DHT22;23098;48.054;10.636;2023-09-18T03:15:31;14.90;99.90
37204;DHT22;23098;48.054;10.636;2023-09-18T03:17:58;14.80;99.90
37204;DHT22;23098;48.054;10.636;2023-09-18T03:20:27;14.80;99.90
37204;DHT22;23098;48.054;10.636;2023-09-18T03:22:55;14.70;99.90
37204;DHT22;23098;48.054;10.636;2023-09-18T03:25:21;14.60;99.90
37204;DHT22;23098;48.054;10.636;2023-09-18T03:27:47;14.60;99.90
37204;DHT22;23098;48.054;10.636;2023-09-18T03:30:13;14.60;99.90
37204;DHT22;23098;48.054;10.636;2023-09-18T03:32:41;14.50;99.90
37204;DHT22;23098;48.054;10.636;2023-09-18T03:35:08;14.50;99.90
37204;DHT22;23098;48.054;10.636;2023-09-18T03:37:35;14.40;99.90
37204;DHT22;23098;48.054;10.636;2023-09-18T03:40:00;14.40;99.90
37204;DHT22;23098;48.054;10.636;2023-09-18T03:42:27;14.40;99.90
37204;DHT22;23098;48.054;10.636;2023-09-18T03:44:52;14.30;99.90
37204;DHT22;23098;48.054;10.636;2023-09-18T03:47:18;14.30;99.90
37204;DHT22;23098;48.054;10.636;2023-09-18T03:49:43;14.30;99.90
37204;DHT22;23098;48.054;10.636;2023-09-18T03:52:09;14.30;99.90
37204;DHT22;23098;48.054;10.636;2023-09-18T03:54:34;14.20;99.90
37204;DHT22;23098;48.054;10.636;2023-09-18T03:57:00;14.20;99.90
37204;DHT22;23098;48.054;10.636;2023-09-18T03:59:26;14.20;99.90
37204;DHT22;23098;48.054;10.636;2023-09-18T04:01:51;14.20;99.90
37204;DHT22;23098;48.054;10.636;2023-09-18T04:04:17;14.20;99.90
37204;DHT22;23098;48.054;10.636;2023-09-18T04:06:43;14.10;99.90
37204;DHT22;23098;48.054;10.636;2023-09-18T04:09:09;14.10;99.90
37204;DHT22;23098;48.054;10.636;2023-09-18T04:11:35;14.00;99.90
37204;DHT22;23098;48.054;10.636;2023-09-18T04:14:01;13.90;99.90
37204;DHT22;23098;48.054;10.636;2023-09-18T04:16:28;13.90;99.90
37204;DHT22;23098;48.054;10.636;2023-09-18T04:18:56;13.90;99.90
37204;DHT22;23098;48.054;10.636;2023-09-18T04:21:22;13.80;99.90
37204;DHT22;23098;48.054;10.636;2023-09-18T04:23:48;13.80;99.90
37204;DHT22;23098;48.054;10.636;2023-09-18T04:26:13;13.80;99.90
37204;DHT22;23098;48.054;10.636;2023-09-18T04:28:45;13.80;99.90
37204;DHT22;23098;48.054;10.636;2023-09-18T04:31:11;13.70;99.90
37204;DHT22;23098;48.054;10.636;2023-09-18T04:33:37;13.70;99.90
37204;DHT22;23098;48.054;10.636;2023-09-18T04:36:03;13.70;99.90
37204;DHT22;23098;48.054;10.636;2023-09-18T04:38:28;13.80;99.90
37204;DHT22;23098;48.054;10.636;2023-09-18T04:40:58;13.90;99.90
37204;DHT22;23098;48.054;10.636;2023-09-18T04:43:24;14.00;99.90
37204;DHT22;23098;48.054;10.636;2023-09-18T04:45:50;14.00;99.90
37204;DHT22;23098;48.054;10.636;2023-09-18T04:48:16;14.00;99.90
37204;DHT22;23098;48.054;10.636;2023-09-18T04:50:42;13.90;99.90
37204;DHT22;23098;48.054;10.636;2023-09-18T04:53:07;13.90;99.90
37204;DHT22;23098;48.054;10.636;2023-09-18T04:55:34;13.90;99.90
37204;DHT22;23098;48.054;10.636;2023-09-18T04:57:59;13.90;99.90
37204;DHT22;23098;48.054;10.636;2023-09-18T05:00:25;13.90;99.90
37204;DHT22;23098;48.054;10.636;2023-09-18T05:02:52;13.90;99.90
37204;DHT22;23098;48.054;10.636;2023-09-18T05:05:17;13.90;99.90
37204;DHT22;23098;48.054;10.636;2023-09-18T05:07:43;14.10;99.90
37204;DHT22;23098;48.054;10.636;2023-09-18T05:10:09;14.20;99.90
37204;DHT22;23098;48.054;10.636;2023-09-18T05:12:35;14.30;99.90
37204;DHT22;23098;48.054;10.636;2023-09-18T05:15:01;14.30;99.90
37204;DHT22;23098;48.054;10.636;2023-09-18T05:17:44;14.30;99.90
37204;DHT22;23098;48.054;10.636;2023-09-18T05:20:12;14.40;99.90
37204;DHT22;23098;48.054;10.636;2023-09-18T05:22:39;14.50;99.90
37204;DHT22;23098;48.054;10.636;2023-09-18T05:25:05;14.60;99.90
37204;DHT22;23098;48.054;10.636;2023-09-18T05:27:32;14.60;99.90
37204;DHT22;23098;48.054;10.636;2023-09-18T05:29:58;14.80;99.90
37204;DHT22;23098;48.054;10.636;2023-09-18T05:32:23;14.80;99.90
37204;DHT22;23098;48.054;10.636;2023-09-18T05:34:48;15.00;99.90
37204;DHT22;23098;48.054;10.636;2023-09-18T05:37:14;15.00;99.90
37204;DHT22;23098;48.054;10.636;2023-09-18T05:39:40;15.10;99.90
37204;DHT22;23098;48.054;10.636;2023-09-18T05:42:06;15.00;99.90
37204;DHT22;23098;48.054;10.636;2023-09-18T05:44:31;15.00;99.90
37204;DHT22;23098;48.054;10.636;2023-09-18T05:46:58;15.20;99.90
37204;DHT22;23098;48.054;10.636;2023-09-18T05:49:24;15.30;99.90
37204;DHT22;23098;48.054;10.636;2023-09-18T05:51:49;15.40;99.90
37204;DHT22;23098;48.054;10.636;2023-09-18T05:54:15;15.40;99.90
37204;DHT22;23098;48.054;10.636;2023-09-18T05:56:40;15.50;99.90
37204;DHT22;23098;48.054;10.636;2023-09-18T05:59:06;15.50;99.90
37204;DHT22;23098;48.054;10.636;2023-09-18T06:01:31;15.60;99.90
37204;DHT22;23098;48.054;10.636;2023-09-18T06:03:58;15.50;99.90
37204;DHT22;23098;48.054;10.636;2023-09-18T06:06:24;15.60;99.90
37204;DHT22;23098;48.054;10.636;2023-09-18T06:08:52;15.70;99.90
37204;DHT22;23098;48.054;10.636;2023-09-18T06:11:19;15.70;99.90
37204;DHT22;23098;48.054;10.636;2023-09-18T06:13:45;15.90;99.90
37204;DHT22;23098;48.054;10.636;2023-09-18T06:16:11;16.10;99.90
37204;DHT22;23098;48.054;10.636;2023-09-18T06:18:36;16.20;99.90
37204;DHT22;23098;48.054;10.636;2023-09-18T06:21:05;16.30;99.90
37204;DHT22;23098;48.054;10.636;2023-09-18T06:23:31;16.30;99.90
37204;DHT22;23098;48.054;10.636;2023-09-18T06:25:58;16.30;99.90
37204;DHT22;23098;48.054;10.636;2023-09-18T06:28:24;16.60;99.90
37204;DHT22;23098;48.054;10.636;2023-09-18T06:30:50;16.80;99.90
37204;DHT22;23098;48.054;10.636;2023-09-18T06:33:16;17.00;99.90
37204;DHT22;23098;48.054;10.636;2023-09-18T06:35:42;17.20;99.90
37204;DHT22;23098;48.054;10.636;2023-09-18T06:38:07;17.40;99.90
37204;DHT22;23098;48.054;10.636;2023-09-18T06:40:35;17.60;99.90
37204;DHT22;23098;48.054;10.636;2023-09-18T06:43:01;18.00;99.90
37204;DHT22;23098;48.054;10.636;2023-09-18T06:45:26;18.30;99.90
37204;DHT22;23098;48.054;10.636;2023-09-18T06:47:53;18.60;99.90
37204;DHT22;23098;48.054;10.636;2023-09-18T06:50:19;18.80;99.90
37204;DHT22;23098;48.054;10.636;2023-09-18T06:52:45;19.00;99.90
37204;DHT22;23098;48.054;10.636;2023-09-18T06:55:11;19.10;99.90
37204;DHT22;23098;48.054;10.636;2023-09-18T06:57:36;19.40;99.90
37204;DHT22;23098;48.054;10.636;2023-09-18T07:00:02;19.50;99.90
37204;DHT22;23098;48.054;10.636;2023-09-18T07:02:29;19.70;99.90
37204;DHT22;23098;48.054;10.636;2023-09-18T07:04:55;19.70;99.90
37204;DHT22;23098;48.054;10.636;2023-09-18T07:07:20;19.70;99.90
37204;DHT22;23098;48.054;10.636;2023-09-18T07:09:51;19.90;99.90
37204;DHT22;23098;48.054;10.636;2023-09-18T07:12:16;20.10;99.90
37204;DHT22;23098;48.054;10.636;2023-09-18T07:14:47;20.20;99.90
37204;DHT22;23098;48.054;10.636;2023-09-18T07:17:13;20.40;99.90
37204;DHT22;23098;48.054;10.636;2023-09-18T07:19:39;20.50;99.80
37204;DHT22;23098;48.054;10.636;2023-09-18T07:22:04;20.50;99.90
37204;DHT22;23098;48.054;10.636;2023-09-18T07:24:30;20.50;99.40
37204;DHT22;23098;48.054;10.636;2023-09-18T07:26:55;20.50;99.90
37204;DHT22;23098;48.054;10.636;2023-09-18T07:29:23;20.50;99.80
37204;DHT22;23098;48.054;10.636;2023-09-18T07:31:50;20.50;99.90
37204;DHT22;23098;48.054;10.636;2023-09-18T07:34:16;20.50;99.90
37204;DHT22;23098;48.054;10.636;2023-09-18T07:36:43;20.50;99.90
37204;DHT22;23098;48.054;10.636;2023-09-18T07:39:10;20.60;99.50
37204;DHT22;23098;48.054;10.636;2023-09-18T07:41:37;20.50;99.80
37204;DHT22;23098;48.054;10.636;2023-09-18T07:44:03;20.60;99.90
37204;DHT22;23098;48.054;10.636;2023-09-18T07:46:29;20.80;99.70
37204;DHT22;23098;48.054;10.636;2023-09-18T07:48:55;20.90;99.90
37204;DHT22;23098;48.054;10.636;2023-09-18T07:51:21;21.10;99.30
37204;DHT22;23098;48.054;10.636;2023-09-18T07:53:47;21.20;99.20
37204;DHT22;23098;48.054;10.636;2023-09-18T07:56:12;21.30;99.50
37204;DHT22;23098;48.054;10.636;2023-09-18T07:58:38;21.30;98.70
37204;DHT22;23098;48.054;10.636;2023-09-18T08:01:05;21.30;98.30
37204;DHT22;23098;48.054;10.636;2023-09-18T08:03:32;21.20;99.00
37204;DHT22;23098;48.054;10.636;2023-09-18T08:05:58;21.20;99.00
37204;DHT22;23098;48.054;10.636;2023-09-18T08:08:23;21.00;99.30
37204;DHT22;23098;48.054;10.636;2023-09-18T08:10:50;21.00;99.20
37204;DHT22;23098;48.054;10.636;2023-09-18T08:13:17;21.00;99.00
37204;DHT22;23098;48.054;10.636;2023-09-18T08:15:43;21.10;99.50
37204;DHT22;23098;48.054;10.636;2023-09-18T08:18:09;21.20;99.40
37204;DHT22;23098;48.054;10.636;2023-09-18T08:20:36;21.20;98.90
37204;DHT22;23098;48.054;10.636;2023-09-18T08:23:05;21.20;99.10
37204;DHT22;23098;48.054;10.636;2023-09-18T08:25:31;21.20;98.70
37204;DHT22;23098;48.054;10.636;2023-09-18T08:27:58;21.30;99.30
37204;DHT22;23098;48.054;10.636;2023-09-18T08:30:24;21.40;99.60
37204;DHT22;23098;48.054;10.636;2023-09-18T08:32:49;21.60;99.10
37204;DHT22;23098;48.054;10.636;2023-09-18T08:35:15;21.60;98.60
37204;DHT22;23098;48.054;10.636;2023-09-18T08:37:41;21.80;98.80
37204;DHT22;23098;48.054;10.636;2023-09-18T08:40:09;21.90;98.00
37204;DHT22;23098;48.054;10.636;2023-09-18T08:42:39;22.00;97.60
37204;DHT22;23098;48.054;10.636;2023-09-18T08:45:09;22.20;97.90
37204;DHT22;23098;48.054;10.636;2023-09-18T08:47:38;22.30;97.10
37204;DHT22;23098;48.054;10.636;2023-09-18T08:50:11;22.40;97.50
37204;DHT22;23098;48.054;10.636;2023-09-18T08:52:37;22.60;97.70
37204;DHT22;23098;48.054;10.636;2023-09-18T08:55:04;22.60;98.00
37204;DHT22;23098;48.054;10.636;2023-09-18T08:57:30;22.60;97.40
37204;DHT22;23098;48.054;10.636;2023-09-18T08:59:57;22.50;97.60
37204;DHT22;23098;48.054;10.636;2023-09-18T09:02:24;22.40;98.00
37204;DHT22;23098;48.054;10.636;2023-09-18T09:04:49;22.30;98.20
37204;DHT22;23098;48.054;10.636;2023-09-18T09:07:15;22.20;98.00
37204;DHT22;23098;48.054;10.636;2023-09-18T09:09:41;22.10;98.30
37204;DHT22;23098;48.054;10.636;2023-09-18T09:12:07;22.00;98.20
37204;DHT22;23098;48.054;10.636;2023-09-18T09:14:33;21.70;98.30
37204;DHT22;23098;48.054;10.636;2023-09-18T09:16:59;21.70;98.60
37204;DHT22;23098;48.054;10.636;2023-09-18T09:19:43;21.70;98.80
37204;DHT22;23098;48.054;10.636;2023-09-18T09:22:08;21.50;98.90
37204;DHT22;23098;48.054;10.636;2023-09-18T09:24:42;21.40;98.70
37204;DHT22;23098;48.054;10.636;2023-09-18T09:27:09;21.30;99.20
37204;DHT22;23098;48.054;10.636;2023-09-18T09:29:35;21.20;98.50
37204;DHT22;23098;48.054;10.636;2023-09-18T09:32:15;21.40;98.80
37204;DHT22;23098;48.054;10.636;2023-09-18T09:34:41;21.50;99.00
37204;DHT22;23098;48.054;10.636;2023-09-18T09:37:08;21.40;98.20
37204;DHT22;23098;48.054;10.636;2023-09-18T09:39:34;21.40;98.70
37204;DHT22;23098;48.054;10.636;2023-09-18T09:42:03;21.30;98.70
37204;DHT22;23098;48.054;10.636;2023-09-18T09:44:32;21.20;98.60
37204;DHT22;23098;48.054;10.636;2023-09-18T09:46:59;21.20;98.80
37204;DHT22;23098;48.054;10.636;2023-09-18T09:49:25;21.20;98.80
37204;DHT22;23098;48.054;10.636;2023-09-18T09:51:53;21.20;98.70
37204;DHT22;23098;48.054;10.636;2023-09-18T09:54:32;21.20;99.00
37204;DHT22;23098;48.054;10.636;2023-09-18T09:57:06;21.30;98.60
37204;DHT22;23098;48.054;10.636;2023-09-18T09:59:31;21.20;98.90
37204;DHT22;23098;48.054;10.636;2023-09-18T10:02:00;21.20;99.20
37204;DHT22;23098;48.054;10.636;2023-09-18T10:04:28;21.20;99.30
37204;DHT22;23098;48.054;10.636;2023-09-18T10:07:06;21.00;99.50
37204;DHT22;23098;48.054;10.636;2023-09-18T10:09:34;20.90;99.90
37204;DHT22;23098;48.054;10.636;2023-09-18T10:12:01;20.80;99.90
37204;DHT22;23098;48.054;10.636;2023-09-18T10:14:30;20.50;99.90
37204;DHT22;23098;48.054;10.636;2023-09-18T10:16:59;20.30;99.90
37204;DHT22;23098;48.054;10.636;2023-09-18T10:19:38;20.00;99.90
37204;DHT22;23098;48.054;10.636;2023-09-18T10:22:24;19.70;99.90
37204;DHT22;23098;48.054;10.636;2023-09-18T10:25:01;19.50;99.90
37204;DHT22;23098;48.054;10.636;2023-09-18T10:27:29;19.50;99.90
37204;DHT22;23098;48.054;10.636;2023-09-18T10:29:57;19.40;99.90
37204;DHT22;23098;48.054;10.636;2023-09-18T10:32:26;19.30;99.90
37204;DHT22;23098;48.054;10.636;2023-09-18T10:34:53;19.10;99.90
37204;DHT22;23098;48.054;10.636;2023-09-18T10:37:19;18.90;99.90
37204;DHT22;23098;48.054;10.636;2023-09-18T10:39:47;18.70;99.90
37204;DHT22;23098;48.054;10.636;2023-09-18T10:42:18;18.60;99.90
37204;DHT22;23098;48.054;10.636;2023-09-18T10:44:44;18.50;99.90
37204;DHT22;23098;48.054;10.636;2023-09-18T10:47:11;18.40;99.90
37204;DHT22;23098;48.054;10.636;2023-09-18T10:49:37;18.20;99.90
37204;DHT22;23098;48.054;10.636;2023-09-18T10:52:03;18.10;99.90
37204;DHT22;23098;48.054;10.636;2023-09-18T10:54:31;18.10;99.90
37204;DHT22;23098;48.054;10.636;2023-09-18T10:56:57;18.00;99.90
37204;DHT22;23098;48.054;10.636;2023-09-18T10:59:23;18.00;99.90
37204;DHT22;23098;48.054;10.636;2023-09-18T11:01:49;17.90;99.90
37204;DHT22;23098;48.054;10.636;2023-09-18T11:04:18;17.90;99.90
37204;DHT22;23098;48.054;10.636;2023-09-18T11:09:31;17.70;99.90
37204;DHT22;23098;48.054;10.636;2023-09-18T11:12:03;17.60;99.90
37204;DHT22;23098;48.054;10.636;2023-09-18T11:17:34;17.40;99.90
37204;DHT22;23098;48.054;10.636;2023-09-18T11:20:23;17.40;99.90
37204;DHT22;23098;48.054;10.636;2023-09-18T11:25:40;17.10;99.90
37204;DHT22;23098;48.054;10.636;2023-09-18T11:28:24;17.10;99.90
37204;DHT22;23098;48.054;10.636;2023-09-18T11:30:54;17.10;99.90
37204;DHT22;23098;48.054;10.636;2023-09-18T11:33:37;17.00;99.90
37204;DHT22;23098;48.054;10.636;2023-09-18T11:36:12;16.90;99.90
37204;DHT22;23098;48.054;10.636;2023-09-18T11:38:55;16.90;99.90
37204;DHT22;23098;48.054;10.636;2023-09-18T11:41:25;16.90;99.90
37204;DHT22;23098;48.054;10.636;2023-09-18T11:43:52;17.00;99.90
37204;DHT22;23098;48.054;10.636;2023-09-18T11:46:19;17.00;99.90
37204;DHT22;23098;48.054;10.636;2023-09-18T11:48:47;17.00;99.90
37204;DHT22;23098;48.054;10.636;2023-09-18T11:51:21;17.00;99.90
37204;DHT22;23098;48.054;10.636;2023-09-18T11:53:49;17.00;99.90
37204;DHT22;23098;48.054;10.636;2023-09-18T11:56:17;17.00;99.90
37204;DHT22;23098;48.054;10.636;2023-09-18T11:58:51;17.00;99.90
37204;DHT22;23098;48.054;10.636;2023-09-18T12:01:21;17.00;99.90
37204;DHT22;23098;48.054;10.636;2023-09-18T12:03:53;17.00;99.90
37204;DHT22;23098;48.054;10.636;2023-09-18T12:06:19;17.00;99.90
37204;DHT22;23098;48.054;10.636;2023-09-18T12:08:45;16.90;99.90
37204;DHT22;23098;48.054;10.636;2023-09-18T12:11:12;17.00;99.90
37204;DHT22;23098;48.054;10.636;2023-09-18T12:13:42;17.10;99.90
37204;DHT22;23098;48.054;10.636;2023-09-18T12:16:08;17.20;99.90
37204;DHT22;23098;48.054;10.636;2023-09-18T12:18:35;17.40;99.90
37204;DHT22;23098;48.054;10.636;2023-09-18T12:21:06;17.40;99.90
37204;DHT22;23098;48.054;10.636;2023-09-18T12:23:39;17.60;99.90
37204;DHT22;23098;48.054;10.636;2023-09-18T12:26:05;17.60;99.90
37204;DHT22;23098;48.054;10.636;2023-09-18T12:28:34;17.70;99.90
37204;DHT22;23098;48.054;10.636;2023-09-18T12:31:00;17.70;99.90
37204;DHT22;23098;48.054;10.636;2023-09-18T12:33:33;17.80;99.90
37204;DHT22;23098;48.054;10.636;2023-09-18T12:36:00;18.00;99.90
37204;DHT22;23098;48.054;10.636;2023-09-18T12:38:26;18.10;99.90
37204;DHT22;23098;48.054;10.636;2023-09-18T12:40:53;18.20;99.90
37204;DHT22;23098;48.054;10.636;2023-09-18T12:43:20;18.10;99.90
37204;DHT22;23098;48.054;10.636;2023-09-18T12:45:48;18.10;99.90
37204;DHT22;23098;48.054;10.636;2023-09-18T12:48:15;18.10;99.90
37204;DHT22;23098;48.054;10.636;2023-09-18T12:50:41;18.10;99.90
37204;DHT22;23098;48.054;10.636;2023-09-18T12:53:14;18.20;99.90
37204;DHT22;23098;48.054;10.636;2023-09-18T12:55:41;18.20;99.90
37204;DHT22;23098;48.054;10.636;2023-09-18T12:58:11;18.20;99.90
37204;DHT22;23098;48.054;10.636;2023-09-18T13:00:36;18.20;99.90
37204;DHT22;23098;48.054;10.636;2023-09-18T13:03:03;18.10;99.90
37204;DHT22;23098;48.054;10.636;2023-09-18T13:05:30;18.10;99.90
37204;DHT22;23098;48.054;10.636;2023-09-18T13:08:03;18.20;99.90
37204;DHT22;23098;48.054;10.636;2023-09-18T13:10:30;18.20;99.90
37204;DHT22;23098;48.054;10.636;2023-09-18T13:13:05;18.40;99.90
37204;DHT22;23098;48.054;10.636;2023-09-18T13:15:31;18.40;99.90
37204;DHT22;23098;48.054;10.636;2023-09-18T13:18:09;18.60;99.90
37204;DHT22;23098;48.054;10.636;2023-09-18T13:20:35;18.60;99.90
37204;DHT22;23098;48.054;10.636;2023-09-18T13:23:00;18.70;99.90
37204;DHT22;23098;48.054;10.636;2023-09-18T13:25:31;18.70;99.90
37204;DHT22;23098;48.054;10.636;2023-09-18T13:28:00;18.90;99.90
37204;DHT22;23098;48.054;10.636;2023-09-18T13:30:26;18.90;99.90
37204;DHT22;23098;48.054;10.636;2023-09-18T13:33:02;19.00;99.90
37204;DHT22;23098;48.054;10.636;2023-09-18T13:35:28;19.00;99.90
37204;DHT22;23098;48.054;10.636;2023-09-18T13:37:54;19.10;99.90
37204;DHT22;23098;48.054;10.636;2023-09-18T13:40:19;19.30;99.90
37204;DHT22;23098;48.054;10.636;2023-09-18T13:42:47;19.30;99.90
37204;DHT22;23098;48.054;10.636;2023-09-18T13:45:14;19.20;99.90
37204;DHT22;23098;48.054;10.636;2023-09-18T13:47:41;19.10;99.90
37204;DHT22;23098;48.054;10.636;2023-09-18T13:50:08;19.10;99.90
37204;DHT22;23098;48.054;10.636;2023-09-18T13:52:35;19.10;99.90
37204;DHT22;23098;48.054;10.636;2023-09-18T13:55:04;19.00;99.90
37204;DHT22;23098;48.054;10.636;2023-09-18T13:57:34;19.00;99.90
37204;DHT22;23098;48.054;10.636;2023-09-18T14:00:02;19.00;99.90
37204;DHT22;23098;48.054;10.636;2023-09-18T14:02:30;19.10;99.90
37204;DHT22;23098;48.054;10.636;2023-09-18T14:04:56;19.00;99.90
37204;DHT22;23098;48.054;10.636;2023-09-18T14:07:22;18.90;99.90
37204;DHT22;23098;48.054;10.636;2023-09-18T14:09:48;19.00;99.90
37204;DHT22;23098;48.054;10.636;2023-09-18T14:12:13;19.00;99.90
37204;DHT22;23098;48.054;10.636;2023-09-18T14:14:41;18.90;99.90
37204;DHT22;23098;48.054;10.636;2023-09-18T14:17:07;19.00;99.90
37204;DHT22;23098;48.054;10.636;2023-09-18T14:19:33;19.00;99.90
37204;DHT22;23098;48.054;10.636;2023-09-18T14:21:59;19.10;99.90
37204;DHT22;23098;48.054;10.636;2023-09-18T14:24:30;19.20;99.90
37204;DHT22;23098;48.054;10.636;2023-09-18T14:26:55;19.30;99.90
37204;DHT22;23098;48.054;10.636;2023-09-18T14:29:21;19.40;99.90
37204;DHT22;23098;48.054;10.636;2023-09-18T14:31:47;19.50;99.90
37204;DHT22;23098;48.054;10.636;2023-09-18T14:34:13;19.60;99.90
37204;DHT22;23098;48.054;10.636;2023-09-18T14:36:39;19.70;99.90
37204;DHT22;23098;48.054;10.636;2023-09-18T14:39:06;19.70;99.90
37204;DHT22;23098;48.054;10.636;2023-09-18T14:41:38;19.70;99.90
37204;DHT22;23098;48.054;10.636;2023-09-18T14:44:05;19.70;99.90
37204;DHT22;23098;48.054;10.636;2023-09-18T14:46:31;19.60;99.90
37204;DHT22;23098;48.054;10.636;2023-09-18T14:49:01;19.50;99.90
37204;DHT22;23098;48.054;10.636;2023-09-18T14:51:30;19.60;99.90
37204;DHT22;23098;48.054;10.636;2023-09-18T14:53:57;19.60;99.90
37204;DHT22;23098;48.054;10.636;2023-09-18T14:56:23;19.50;99.90
37204;DHT22;23098;48.054;10.636;2023-09-18T14:58:48;19.60;99.90
37204;DHT22;23098;48.054;10.636;2023-09-18T15:01:15;19.60;99.90
37204;DHT22;23098;48.054;10.636;2023-09-18T15:03:40;19.70;99.90
37204;DHT22;23098;48.054;10.636;2023-09-18T15:06:06;19.70;99.90
37204;DHT22;23098;48.054;10.636;2023-09-18T15:08:33;19.80;99.90
37204;DHT22;23098;48.054;10.636;2023-09-18T15:10:59;19.90;99.90
37204;DHT22;23098;48.054;10.636;2023-09-18T15:13:25;20.10;99.90
37204;DHT22;23098;48.054;10.636;2023-09-18T15:15:50;20.10;99.90
37204;DHT22;23098;48.054;10.636;2023-09-18T15:18:16;20.20;99.90
37204;DHT22;23098;48.054;10.636;2023-09-18T15:20:42;20.30;99.90
37204;DHT22;23098;48.054;10.636;2023-09-18T15:23:08;20.20;99.90
37204;DHT22;23098;48.054;10.636;2023-09-18T15:25:33;20.10;99.90